Time;durP1;ratioP1;P1;durP2;ratioP2;P2;SDS_P1;SDS_P2;PMS_P1;PMS_P2;Temp;Humidity;BMP_temperature;BMP_pressure;BME280_temperature;BME280_humidity;BME280_pressure;Samples;Min_cycle;Max_cycle;Signal;HPM_P1;HPM_P2
2023/03/04 00:01:56;;;;;;;16.25;4.65;;;7.30;99.90;;;;;;5091119;28;20198;-75
2023/03/04 00:04:24;;;;;;;16.90;4.97;;;7.30;99.90;;;;;;5090474;28;20197;-75
2023/03/04 00:06:51;;;;;;;14.75;5.32;;;7.30;99.90;;;;;;5079886;28;20286;-75
2023/03/04 00:09:20;;;;;;;11.93;4.97;;;7.20;99.90;;;;;;5085015;28;20205;-75
2023/03/04 00:11:46;;;;;;;24.08;7.85;;;7.20;99.90;;;;;;5081727;28;20209;-75
2023/03/04 00:14:14;;;;;;;31.88;8.02;;;7.20;99.90;;;;;;5082911;28;20663;-75
2023/03/04 00:16:41;;;;;;;24.77;6.85;;;7.20;99.90;;;;;;5084321;28;20237;-74
2023/03/04 00:19:08;;;;;;;26.38;8.05;;;7.20;99.90;;;;;;5084308;28;20283;-75
2023/03/04 00:21:36;;;;;;;21.45;5.55;;;7.10;99.90;;;;;;5082947;28;20245;-74
2023/03/04 00:24:03;;;;;;;18.83;5.75;;;7.30;99.90;;;;;;5089260;28;20711;-76
2023/03/04 00:26:30;;;;;;;20.63;4.53;;;7.30;99.90;;;;;;5079333;28;20300;-75
2023/03/04 00:28:57;;;;;;;23.45;5.80;;;7.40;99.90;;;;;;5079359;28;20237;-74
2023/03/04 00:31:29;;;;;;;21.65;6.38;;;7.30;99.90;;;;;;5089217;28;20202;-74
2023/03/04 00:33:56;;;;;;;13.43;4.97;;;7.30;99.90;;;;;;5086199;28;20232;-74
2023/03/04 00:36:23;;;;;;;14.32;4.15;;;7.30;99.90;;;;;;5091784;28;20312;-73
2023/03/04 00:38:52;;;;;;;13.77;4.70;;;7.20;99.90;;;;;;5082229;28;20229;-75
2023/03/04 00:41:19;;;;;;;18.75;4.28;;;7.20;99.90;;;;;;5080913;28;20271;-74
2023/03/04 00:43:46;;;;;;;16.38;4.75;;;7.20;99.90;;;;;;5088172;28;20292;-75
2023/03/04 00:46:13;;;;;;;23.83;4.45;;;7.20;99.90;;;;;;5083970;28;20225;-73
2023/03/04 00:48:41;;;;;;;12.45;4.07;;;7.20;99.90;;;;;;5086393;28;20201;-74
2023/03/04 00:51:09;;;;;;;20.98;5.60;;;7.20;99.90;;;;;;5089139;28;20575;-75
2023/03/04 00:53:36;;;;;;;19.85;5.57;;;7.20;99.90;;;;;;5090111;28;20274;-75
2023/03/04 00:56:08;;;;;;;20.10;4.75;;;7.20;99.90;;;;;;5091041;28;20195;-75
2023/03/04 00:58:35;;;;;;;8.38;3.35;;;7.20;99.90;;;;;;5076935;28;20222;-76
2023/03/04 01:01:03;;;;;;;16.40;3.97;;;7.20;99.90;;;;;;5088595;28;20345;-74
2023/03/04 01:03:31;;;;;;;18.92;5.43;;;7.20;99.90;;;;;;5088041;28;20209;-75
2023/03/04 01:05:59;;;;;;;18.73;5.25;;;7.20;99.90;;;;;;5093611;28;20202;-74
2023/03/04 01:08:28;;;;;;;7.68;3.25;;;7.00;99.90;;;;;;5094690;28;20209;-73
2023/03/04 01:10:56;;;;;;;16.80;5.68;;;7.20;99.90;;;;;;5080607;28;20225;-75
2023/03/04 01:13:24;;;;;;;21.52;5.18;;;7.20;99.90;;;;;;5080306;28;20205;-76
2023/03/04 01:15:51;;;;;;;15.38;5.78;;;7.20;99.90;;;;;;5076011;28;20198;-75
2023/03/04 01:18:18;;;;;;;14.48;4.72;;;7.30;99.90;;;;;;5081563;28;20323;-76
2023/03/04 01:20:45;;;;;;;13.38;4.57;;;7.40;99.90;;;;;;5084227;28;20233;-74
2023/03/04 01:23:12;;;;;;;28.45;4.40;;;7.30;99.90;;;;;;5090072;28;20263;-75
2023/03/04 01:25:39;;;;;;;14.32;3.80;;;7.30;99.90;;;;;;5087497;28;20255;-74
2023/03/04 01:28:12;;;;;;;7.80;3.30;;;7.50;99.90;;;;;;5079100;28;20226;-74
2023/03/04 01:30:40;;;;;;;10.63;3.20;;;7.30;99.90;;;;;;5088444;28;20624;-74
2023/03/04 01:33:10;;;;;;;14.68;4.57;;;7.40;99.90;;;;;;5087291;28;20202;-73
2023/03/04 01:35:37;;;;;;;14.20;3.30;;;7.30;99.90;;;;;;5084922;28;20205;-74
2023/03/04 01:38:05;;;;;;;18.25;4.82;;;7.30;99.90;;;;;;5085021;28;20229;-75
2023/03/04 01:40:32;;;;;;;11.60;3.70;;;7.40;99.90;;;;;;5081662;28;20208;-75
2023/03/04 01:42:59;;;;;;;11.68;4.20;;;7.40;99.90;;;;;;5083696;28;20301;-75
2023/03/04 01:45:26;;;;;;;11.15;3.30;;;7.40;99.90;;;;;;5087282;28;20638;-75
2023/03/04 01:47:55;;;;;;;11.45;4.15;;;7.40;99.90;;;;;;5079879;28;20221;-75
2023/03/04 01:50:28;;;;;;;16.77;4.22;;;7.40;99.90;;;;;;5080621;28;20575;-76
2023/03/04 01:52:55;;;;;;;13.85;3.72;;;7.30;99.90;;;;;;5079763;28;20226;-74
2023/03/04 01:55:24;;;;;;;20.63;3.38;;;7.30;99.90;;;;;;5093524;28;20650;-75
2023/03/04 01:57:52;;;;;;;10.55;3.30;;;7.30;99.90;;;;;;5090839;28;20706;-74
2023/03/04 02:00:26;;;;;;;20.75;4.82;;;7.30;99.90;;;;;;5091240;28;20205;-75
2023/03/04 02:02:57;;;;;;;10.82;4.28;;;7.30;99.90;;;;;;5090615;28;20551;-75
2023/03/04 02:05:24;;;;;;;16.73;4.45;;;7.20;99.90;;;;;;5086245;28;20196;-73
2023/03/04 02:07:52;;;;;;;17.83;3.20;;;7.30;99.90;;;;;;5088874;28;20246;-73
2023/03/04 02:10:20;;;;;;;7.60;2.65;;;7.30;99.90;;;;;;5087587;28;20254;-74
2023/03/04 02:12:47;;;;;;;6.30;2.53;;;7.40;99.90;;;;;;5095169;28;20197;-73
2023/03/04 02:15:16;;;;;;;14.68;2.70;;;7.40;99.90;;;;;;5091974;28;20288;-75
2023/03/04 02:17:43;;;;;;;6.90;2.50;;;7.30;99.90;;;;;;5089573;28;20700;-72
2023/03/04 02:20:23;;;;;;;6.85;2.03;;;7.30;99.90;;;;;;5084722;28;20201;-74
2023/03/04 02:22:59;;;;;;;6.43;2.22;;;7.30;99.90;;;;;;5077378;28;20221;-74
2023/03/04 02:25:31;;;;;;;7.45;2.40;;;7.10;99.90;;;;;;5081779;28;20290;-75
2023/03/04 02:28:01;;;;;;;5.13;2.35;;;7.30;99.90;;;;;;5085863;28;20271;-76
2023/03/04 02:30:28;;;;;;;12.68;3.70;;;7.40;99.90;;;;;;5081114;28;20289;-74
2023/03/04 02:32:55;;;;;;;11.00;3.90;;;7.40;99.90;;;;;;5086649;28;20199;-75
2023/03/04 02:35:22;;;;;;;18.02;4.45;;;7.40;99.90;;;;;;5078370;28;20201;-75
2023/03/04 02:37:49;;;;;;;14.43;3.92;;;7.40;99.90;;;;;;5089694;28;20294;-74
2023/03/04 02:40:21;;;;;;;22.35;3.10;;;7.30;99.90;;;;;;5087568;28;20200;-74
2023/03/04 02:42:49;;;;;;;9.13;3.25;;;7.20;99.90;;;;;;5087413;28;20236;-75
2023/03/04 02:45:38;;;;;;;20.52;4.10;;;7.20;99.90;;;;;;5079084;28;20197;-73
2023/03/04 02:48:08;;;;;;;10.77;2.92;;;7.10;99.90;;;;;;5081270;28;20281;-75
2023/03/04 02:50:39;;;;;;;9.68;2.58;;;7.10;99.90;;;;;;5085187;28;20209;-74
2023/03/04 02:53:06;;;;;;;10.90;3.15;;;7.10;99.90;;;;;;5079286;28;20307;-74
2023/03/04 02:55:33;;;;;;;10.05;3.42;;;7.00;99.90;;;;;;5084410;28;20290;-74
2023/03/04 02:58:02;;;;;;;5.43;2.22;;;6.90;99.90;;;;;;5079542;28;20225;-73
2023/03/04 03:00:29;;;;;;;14.48;3.50;;;6.90;99.90;;;;;;5087852;28;20650;-74
2023/03/04 03:02:57;;;;;;;16.20;3.58;;;6.90;99.90;;;;;;5078858;28;20306;-75
2023/03/04 03:05:26;;;;;;;11.65;2.97;;;6.80;99.90;;;;;;5083671;28;20230;-75
2023/03/04 03:07:53;;;;;;;11.30;2.72;;;6.90;99.90;;;;;;5090800;28;20581;-74
2023/03/04 03:10:21;;;;;;;10.63;2.72;;;6.90;99.90;;;;;;5085424;28;20291;-74
2023/03/04 03:12:48;;;;;;;16.88;3.08;;;6.90;99.90;;;;;;5089121;28;20204;-75
2023/03/04 03:15:16;;;;;;;17.25;3.65;;;6.90;99.90;;;;;;5084651;28;20199;-75
2023/03/04 03:17:43;;;;;;;5.68;1.95;;;6.90;99.90;;;;;;5075811;28;20214;-75
2023/03/04 03:20:13;;;;;;;15.15;4.30;;;6.90;99.90;;;;;;5078048;28;20280;-74
2023/03/04 03:22:40;;;;;;;11.48;3.05;;;6.90;99.90;;;;;;5084733;28;20218;-75
2023/03/04 03:25:09;;;;;;;11.00;1.98;;;6.90;99.90;;;;;;5074073;28;20205;-75
2023/03/04 03:27:36;;;;;;;7.63;1.95;;;6.90;99.90;;;;;;5080109;28;20574;-74
2023/03/04 03:30:05;;;;;;;13.73;2.13;;;6.90;99.90;;;;;;5077639;28;20300;-73
2023/03/04 03:32:32;;;;;;;6.85;2.53;;;6.90;99.90;;;;;;5074486;28;20243;-74
2023/03/04 03:34:59;;;;;;;9.15;2.03;;;6.80;99.90;;;;;;5085942;28;20215;-75
2023/03/04 03:37:28;;;;;;;11.35;2.97;;;6.80;99.90;;;;;;5081171;28;20248;-74
2023/03/04 03:39:54;;;;;;;15.15;3.00;;;6.80;99.90;;;;;;5077701;28;20262;-74
2023/03/04 03:42:22;;;;;;;8.88;2.63;;;6.80;99.90;;;;;;5080029;28;20296;-75
2023/03/04 03:44:49;;;;;;;12.82;1.80;;;6.90;99.90;;;;;;5083740;28;20223;-76
2023/03/04 03:47:17;;;;;;;9.65;2.35;;;6.90;99.90;;;;;;5080789;28;20230;-75
2023/03/04 03:49:44;;;;;;;15.18;2.60;;;6.90;99.90;;;;;;5091272;28;20216;-74
2023/03/04 03:52:11;;;;;;;11.43;2.08;;;6.90;99.90;;;;;;5096195;28;20223;-75
2023/03/04 03:54:39;;;;;;;7.53;2.22;;;6.90;99.90;;;;;;5081131;28;20222;-74
2023/03/04 03:57:06;;;;;;;16.77;2.88;;;7.00;99.90;;;;;;5091711;28;20782;-75
2023/03/04 03:59:33;;;;;;;12.13;2.95;;;7.00;99.90;;;;;;5089615;28;20292;-74
2023/03/04 04:02:00;;;;;;;6.28;2.28;;;7.00;99.90;;;;;;5083638;28;20286;-74
2023/03/04 04:04:29;;;;;;;15.05;2.65;;;7.00;99.90;;;;;;5092710;28;20285;-74
2023/03/04 04:06:56;;;;;;;13.32;2.75;;;6.90;99.90;;;;;;5092719;28;20308;-75
2023/03/04 04:09:23;;;;;;;7.75;1.90;;;6.90;99.90;;;;;;5095498;28;20320;-75
2023/03/04 04:11:51;;;;;;;10.85;3.28;;;6.90;99.90;;;;;;5087255;28;20312;-74
2023/03/04 04:14:18;;;;;;;13.15;2.85;;;6.90;99.90;;;;;;5093083;28;20266;-74
2023/03/04 04:16:45;;;;;;;9.93;3.63;;;6.90;99.90;;;;;;5086037;28;20301;-74
2023/03/04 04:19:17;;;;;;;8.00;2.65;;;6.90;99.90;;;;;;5088613;28;20287;-75
2023/03/04 04:21:45;;;;;;;7.35;3.05;;;6.80;99.90;;;;;;5090065;28;20240;-74
2023/03/04 04:24:12;;;;;;;5.32;1.85;;;6.80;99.90;;;;;;5088243;28;20261;-76
2023/03/04 04:26:39;;;;;;;13.82;1.95;;;6.70;99.90;;;;;;5092243;28;20244;-74
2023/03/04 04:29:08;;;;;;;4.57;1.52;;;6.70;99.90;;;;;;5082954;28;20248;-73
2023/03/04 04:31:36;;;;;;;5.72;1.67;;;6.70;99.90;;;;;;5089955;28;20193;-74
2023/03/04 04:34:03;;;;;;;5.60;2.97;;;6.70;99.90;;;;;;5089358;28;20293;-74
2023/03/04 04:36:31;;;;;;;7.32;1.70;;;6.80;99.90;;;;;;5095068;28;20226;-75
2023/03/04 04:38:58;;;;;;;10.55;1.80;;;6.70;99.90;;;;;;5090372;28;20285;-75
2023/03/04 04:41:28;;;;;;;6.68;1.85;;;6.70;99.90;;;;;;5078698;28;20600;-75
2023/03/04 04:43:55;;;;;;;7.70;1.85;;;6.70;99.90;;;;;;5081382;28;20204;-75
2023/03/04 04:46:26;;;;;;;10.85;2.40;;;6.70;99.90;;;;;;5079374;28;20617;-74
2023/03/04 04:48:53;;;;;;;9.57;1.77;;;6.70;99.90;;;;;;5083882;28;20231;-75
2023/03/04 04:51:22;;;;;;;6.68;1.90;;;6.60;99.90;;;;;;5084367;28;20753;-75
2023/03/04 04:53:56;;;;;;;16.10;4.05;;;6.60;99.90;;;;;;5095279;28;20716;-74
2023/03/04 04:56:25;;;;;;;9.30;2.15;;;6.60;99.90;;;;;;5086498;28;20220;-74
2023/03/04 04:58:54;;;;;;;10.57;2.35;;;6.50;99.90;;;;;;5076865;28;20212;-75
2023/03/04 05:01:21;;;;;;;12.93;2.63;;;6.50;99.90;;;;;;5094099;28;20231;-74
2023/03/04 05:03:52;;;;;;;10.55;1.95;;;6.40;99.90;;;;;;5081580;28;20250;-74
2023/03/04 05:06:20;;;;;;;8.35;2.60;;;6.40;99.90;;;;;;5083485;28;20235;-74
2023/03/04 05:08:47;;;;;;;5.70;1.63;;;6.50;99.90;;;;;;5082781;28;20229;-75
2023/03/04 05:11:15;;;;;;;11.90;2.60;;;6.50;99.90;;;;;;5091392;28;20611;-73
2023/03/04 05:13:42;;;;;;;8.43;2.40;;;6.50;99.90;;;;;;5081653;28;20722;-74
2023/03/04 05:16:09;;;;;;;23.15;3.00;;;6.50;99.90;;;;;;5080981;28;20197;-74
2023/03/04 05:18:36;;;;;;;6.53;1.92;;;6.50;99.90;;;;;;5090709;28;20236;-74
2023/03/04 05:21:05;;;;;;;11.73;2.55;;;6.50;99.90;;;;;;5087317;28;20208;-74
2023/03/04 05:23:34;;;;;;;8.13;2.28;;;6.50;99.90;;;;;;5079589;28;20287;-74
2023/03/04 05:26:01;;;;;;;12.13;2.35;;;6.50;99.90;;;;;;5087285;28;20283;-74
2023/03/04 05:28:29;;;;;;;8.43;3.67;;;6.40;99.90;;;;;;5091711;28;20223;-75
2023/03/04 05:30:55;;;;;;;13.43;2.45;;;6.50;99.90;;;;;;5088444;28;20552;-74
2023/03/04 05:33:23;;;;;;;4.65;1.40;;;6.50;99.90;;;;;;5090143;28;20205;-72
2023/03/04 05:35:50;;;;;;;6.63;2.30;;;6.40;99.90;;;;;;5082986;28;20620;-74
2023/03/04 05:38:20;;;;;;;11.68;3.00;;;6.40;99.90;;;;;;5085310;28;20220;-75
2023/03/04 05:40:47;;;;;;;7.60;3.05;;;6.40;99.90;;;;;;5076319;28;20199;-74
2023/03/04 05:43:15;;;;;;;28.52;5.63;;;6.40;99.90;;;;;;5078960;28;20655;-76
2023/03/04 05:45:42;;;;;;;12.50;3.83;;;6.40;99.90;;;;;;5083261;28;20251;-74
2023/03/04 05:48:10;;;;;;;9.93;3.00;;;6.30;99.90;;;;;;5085781;28;20228;-74
2023/03/04 05:50:37;;;;;;;6.43;3.00;;;6.30;99.90;;;;;;5089296;28;20281;-75
2023/03/04 05:53:04;;;;;;;11.00;2.75;;;6.30;99.90;;;;;;5082959;28;20232;-73
2023/03/04 05:55:32;;;;;;;7.60;3.45;;;6.30;99.90;;;;;;5078772;28;20197;-74
2023/03/04 05:58:00;;;;;;;12.63;3.83;;;6.30;99.90;;;;;;5091289;28;20379;-74
2023/03/04 06:00:27;;;;;;;10.95;3.67;;;6.30;99.90;;;;;;5083217;28;20662;-74
2023/03/04 06:02:54;;;;;;;7.68;4.00;;;6.30;99.90;;;;;;5077339;28;20236;-73
2023/03/04 06:05:22;;;;;;;13.80;6.68;;;6.30;99.90;;;;;;5075275;28;20635;-75
2023/03/04 06:07:48;;;;;;;23.60;10.30;;;6.40;99.90;;;;;;5083396;28;20274;-75
2023/03/04 06:10:17;;;;;;;14.57;7.45;;;6.40;99.90;;;;;;5076736;28;20673;-74
2023/03/04 06:12:47;;;;;;;17.83;8.88;;;6.50;99.90;;;;;;5076030;28;20289;-74
2023/03/04 06:15:14;;;;;;;13.10;8.15;;;6.50;99.90;;;;;;5081798;28;20204;-73
2023/03/04 06:17:42;;;;;;;15.90;7.53;;;6.60;99.90;;;;;;5090406;28;20229;-74
2023/03/04 06:20:10;;;;;;;19.88;8.20;;;6.60;99.90;;;;;;5079608;28;20204;-74
2023/03/04 06:22:37;;;;;;;11.75;6.55;;;6.60;99.90;;;;;;5080782;28;20209;-74
2023/03/04 06:25:05;;;;;;;13.65;5.97;;;6.70;99.90;;;;;;5075654;28;20294;-72
2023/03/04 06:27:32;;;;;;;14.82;6.03;;;6.70;99.90;;;;;;5083369;28;20253;-75
2023/03/04 06:30:08;;;;;;;12.65;6.45;;;6.60;99.90;;;;;;5087141;28;20302;-73
2023/03/04 06:32:35;;;;;;;15.38;4.72;;;6.70;99.90;;;;;;5075323;28;20236;-74
2023/03/04 06:35:02;;;;;;;13.07;4.50;;;6.80;99.90;;;;;;5081259;28;20208;-74
2023/03/04 06:37:29;;;;;;;20.00;5.80;;;6.80;99.90;;;;;;5077806;28;20271;-74
2023/03/04 06:39:56;;;;;;;18.10;9.27;;;6.70;99.90;;;;;;5073605;28;20205;-73
2023/03/04 06:42:23;;;;;;;16.02;9.38;;;6.80;99.90;;;;;;5075362;28;20233;-75
2023/03/04 06:44:50;;;;;;;18.10;11.55;;;6.80;99.90;;;;;;5082849;28;20655;-74
2023/03/04 06:47:18;;;;;;;20.63;9.45;;;6.80;99.90;;;;;;5074134;28;20313;-74
2023/03/04 06:49:45;;;;;;;17.15;11.77;;;6.70;99.90;;;;;;5079039;28;20756;-74
2023/03/04 06:52:12;;;;;;;20.48;8.07;;;6.80;99.90;;;;;;5075956;28;20286;-74
2023/03/04 06:54:41;;;;;;;15.85;8.88;;;6.80;99.90;;;;;;5082076;28;20300;-75
2023/03/04 06:57:08;;;;;;;19.65;7.78;;;6.80;99.90;;;;;;5080935;28;20304;-74
2023/03/04 06:59:35;;;;;;;10.63;6.57;;;6.80;99.90;;;;;;5078856;28;20564;-74
2023/03/04 07:02:02;;;;;;;9.75;4.15;;;6.80;99.90;;;;;;5080382;28;20202;-75
2023/03/04 07:04:31;;;;;;;7.35;3.50;;;6.90;99.90;;;;;;5081143;28;20202;-74
2023/03/04 07:06:58;;;;;;;6.70;2.97;;;7.00;99.90;;;;;;5079389;28;20225;-74
2023/03/04 07:09:25;;;;;;;6.55;3.88;;;6.90;99.90;;;;;;5075419;28;20233;-76
2023/03/04 07:11:52;;;;;;;5.07;2.50;;;7.00;99.90;;;;;;5080252;28;20276;-74
2023/03/04 07:14:19;;;;;;;9.20;2.75;;;7.00;99.90;;;;;;5075794;28;20674;-74
2023/03/04 07:16:46;;;;;;;9.02;2.97;;;7.10;99.90;;;;;;5085394;28;20217;-74
2023/03/04 07:19:13;;;;;;;5.45;2.72;;;7.20;99.90;;;;;;5076520;28;20562;-74
2023/03/04 07:21:41;;;;;;;11.07;3.78;;;7.20;99.90;;;;;;5074042;28;20256;-75
2023/03/04 07:24:08;;;;;;;11.75;2.72;;;7.20;99.90;;;;;;5082753;28;20288;-74
2023/03/04 07:26:36;;;;;;;13.20;3.08;;;7.30;99.90;;;;;;5080225;28;20225;-74
2023/03/04 07:29:03;;;;;;;15.50;3.67;;;7.40;99.90;;;;;;5090820;28;20302;-75
2023/03/04 07:31:35;;;;;;;9.52;2.30;;;7.40;99.90;;;;;;5076289;28;20259;-72
2023/03/04 07:34:05;;;;;;;13.02;2.20;;;7.50;99.90;;;;;;5079139;28;20198;-73
2023/03/04 07:36:33;;;;;;;16.58;4.60;;;7.50;99.90;;;;;;5080021;28;20218;-73
2023/03/04 07:39:02;;;;;;;16.40;3.05;;;7.50;99.90;;;;;;5077948;28;20229;-73
2023/03/04 07:41:29;;;;;;;12.20;3.60;;;7.40;99.90;;;;;;5088342;28;20205;-73
2023/03/04 07:43:57;;;;;;;16.08;4.82;;;7.40;99.90;;;;;;5081796;28;20280;-75
2023/03/04 07:46:24;;;;;;;13.50;3.70;;;7.40;99.90;;;;;;5092182;28;20325;-73
2023/03/04 07:48:51;;;;;;;17.30;5.75;;;7.50;99.90;;;;;;5090943;28;20252;-73
2023/03/04 07:51:22;;;;;;;16.10;2.95;;;7.50;99.90;;;;;;5089794;28;20206;-73
2023/03/04 07:53:51;;;;;;;12.23;3.22;;;7.50;99.90;;;;;;5090756;28;20219;-73
2023/03/04 07:56:21;;;;;;;14.57;4.88;;;7.40;99.90;;;;;;5091433;28;20676;-75
2023/03/04 07:58:50;;;;;;;13.55;3.30;;;7.40;99.90;;;;;;5090060;28;20195;-74
2023/03/04 08:01:20;;;;;;;19.63;4.30;;;7.40;99.90;;;;;;5090745;28;20564;-73
2023/03/04 08:03:48;;;;;;;14.55;3.55;;;7.40;99.90;;;;;;5088605;28;20208;-73
2023/03/04 08:06:18;;;;;;;21.33;5.18;;;7.40;99.90;;;;;;5080315;28;20280;-73
2023/03/04 08:08:45;;;;;;;20.65;4.80;;;7.40;99.90;;;;;;5077588;28;20204;-75
2023/03/04 08:11:16;;;;;;;20.20;4.65;;;7.50;99.90;;;;;;5086533;28;20210;-75
2023/03/04 08:45:35;;;;;;;32.38;5.28;;;7.60;99.90;;;;;;5291467;22;20225;-81
2023/03/04 08:48:03;;;;;;;28.50;6.70;;;7.60;99.90;;;;;;5106378;28;20224;-83
2023/03/04 08:50:30;;;;;;;25.33;5.55;;;7.70;99.90;;;;;;5099804;28;20210;-84
2023/03/04 08:52:58;;;;;;;32.13;4.53;;;7.80;99.90;;;;;;5107841;28;20182;-81
2023/03/04 08:55:25;;;;;;;10.18;2.60;;;8.00;99.90;;;;;;5103793;28;20237;-82
2023/03/04 08:57:52;;;;;;;15.55;2.92;;;8.10;99.90;;;;;;5107531;28;20265;-82
2023/03/04 09:00:20;;;;;;;12.48;3.38;;;8.50;99.90;;;;;;5100815;28;20297;-82
2023/03/04 09:02:48;;;;;;;10.30;2.50;;;9.00;99.90;;;;;;5107999;28;20198;-83
2023/03/04 09:05:15;;;;;;;10.05;2.78;;;9.30;99.90;;;;;;5094191;28;20218;-82
2023/03/04 09:07:41;;;;;;;8.80;2.70;;;9.20;99.90;;;;;;5098155;28;20312;-81
2023/03/04 09:10:10;;;;;;;6.18;2.67;;;9.00;99.90;;;;;;5081296;28;20191;-82
2023/03/04 09:12:36;;;;;;;10.05;2.80;;;8.80;99.90;;;;;;5097437;28;20208;-82
2023/03/04 09:15:04;;;;;;;14.15;2.95;;;8.70;99.90;;;;;;5094822;28;20286;-81
2023/03/04 09:17:31;;;;;;;11.43;2.67;;;8.40;99.90;;;;;;5104148;28;20396;-80
2023/03/04 09:19:59;;;;;;;20.85;3.65;;;8.30;99.90;;;;;;5096342;28;20229;-81
2023/03/04 09:22:26;;;;;;;11.38;2.60;;;8.10;99.90;;;;;;5082322;28;20219;-81
2023/03/04 09:24:53;;;;;;;9.20;3.03;;;8.80;99.90;;;;;;5085347;28;20214;-82
2023/03/04 09:27:20;;;;;;;16.20;3.45;;;10.20;99.90;;;;;;5088389;28;20224;-81
2023/03/04 09:29:47;;;;;;;11.95;3.22;;;11.30;99.90;;;;;;5082949;28;20634;-84
2023/03/04 09:32:14;;;;;;;19.95;4.85;;;11.90;99.90;;;;;;5089121;28;20194;-83
2023/03/04 09:34:42;;;;;;;12.70;3.88;;;13.00;99.90;;;;;;5090436;28;20207;-83
2023/03/04 09:37:10;;;;;;;12.70;3.25;;;13.80;99.90;;;;;;5093796;28;20238;-83
2023/03/04 09:39:37;;;;;;;13.50;3.33;;;13.80;99.90;;;;;;5100553;28;20246;-83
2023/03/04 09:42:06;;;;;;;11.77;3.38;;;13.00;99.90;;;;;;5093373;28;20670;-82
2023/03/04 09:44:36;;;;;;;19.67;4.38;;;11.90;99.90;;;;;;5087592;28;20306;-82
2023/03/04 09:47:06;;;;;;;19.10;2.90;;;11.10;99.90;;;;;;5092201;28;20698;-83
2023/03/04 09:49:33;;;;;;;19.00;4.75;;;10.50;99.90;;;;;;5084960;28;20237;-81
2023/03/04 09:52:04;;;;;;;11.73;3.20;;;10.10;99.90;;;;;;5092632;28;20271;-82
2023/03/04 09:54:53;;;;;;;18.20;3.58;;;9.60;99.90;;;;;;5088463;28;20804;-82
2023/03/04 09:57:30;;;;;;;9.40;3.10;;;9.30;99.90;;;;;;5085580;28;20623;-83
2023/03/04 10:00:06;;;;;;;17.73;3.95;;;9.30;99.90;;;;;;5096200;28;20213;-82
2023/03/04 10:02:45;;;;;;;19.40;8.07;;;9.30;99.90;;;;;;5088152;28;20252;-81
2023/03/04 10:05:18;;;;;;;26.25;3.10;;;9.60;99.90;;;;;;5091342;28;20233;-81
2023/03/04 10:07:50;;;;;;;8.98;3.00;;;9.90;99.90;;;;;;5099027;28;20223;-81
2023/03/04 10:10:24;;;;;;;8.70;3.38;;;10.20;99.90;;;;;;5099170;28;20625;-82
2023/03/04 10:12:53;;;;;;;13.23;3.33;;;10.30;99.90;;;;;;5102838;28;20196;-85
2023/03/04 10:15:31;;;;;;;10.18;2.83;;;10.10;99.90;;;;;;5097844;28;20202;-85
2023/03/04 10:18:03;;;;;;;19.20;4.70;;;9.80;99.90;;;;;;5095021;28;20575;-83
2023/03/04 10:20:41;;;;;;;14.68;4.03;;;9.60;99.90;;;;;;5097282;28;20567;-84
2023/03/04 10:23:13;;;;;;;22.23;5.60;;;9.40;99.90;;;;;;5107777;28;20256;-83
2023/03/04 10:25:44;;;;;;;12.07;3.67;;;8.90;99.90;;;;;;5106963;28;20766;-81
2023/03/04 10:28:15;;;;;;;17.30;3.88;;;9.20;99.90;;;;;;5094643;28;20227;-82
2023/03/04 10:30:49;;;;;;;19.83;4.70;;;9.60;99.90;;;;;;5100490;28;20714;-80
2023/03/04 10:33:18;;;;;;;19.10;4.75;;;10.10;99.90;;;;;;5102250;28;20201;-83
2023/03/04 10:35:50;;;;;;;10.27;2.97;;;10.20;99.90;;;;;;5094268;28;20266;-83
2023/03/04 10:38:20;;;;;;;13.18;3.22;;;10.10;99.90;;;;;;5104108;28;20282;-82
2023/03/04 10:40:48;;;;;;;18.80;4.28;;;9.60;99.90;;;;;;5100518;28;20652;-83
2023/03/04 10:43:17;;;;;;;17.67;4.55;;;9.20;99.90;;;;;;5103334;28;20640;-83
2023/03/04 10:45:45;;;;;;;12.73;4.10;;;9.00;99.90;;;;;;5107111;28;20209;-83
2023/03/04 10:48:21;;;;;;;15.73;3.70;;;8.90;99.90;;;;;;5099352;28;20217;-83
2023/03/04 10:50:48;;;;;;;14.07;3.30;;;8.80;99.90;;;;;;5104154;28;20177;-82
2023/03/04 10:53:33;;;;;;;13.77;2.47;;;8.60;99.90;;;;;;5106008;28;20274;-81
2023/03/04 10:56:02;;;;;;;23.00;6.80;;;8.60;99.90;;;;;;5109421;28;20285;-82
2023/03/04 10:58:28;;;;;;;18.55;4.03;;;9.00;99.90;;;;;;5094639;28;20221;-83
2023/03/04 11:01:05;;;;;;;17.23;3.65;;;9.20;99.90;;;;;;5096782;28;20309;-82
2023/03/04 11:03:34;;;;;;;12.40;3.25;;;9.40;99.90;;;;;;5096137;28;20261;-82
2023/03/04 11:06:14;;;;;;;8.75;4.95;;;9.40;99.90;;;;;;5105268;28;20261;-83
2023/03/04 11:08:42;;;;;;;10.55;3.00;;;9.80;99.90;;;;;;5103860;28;20297;-82
2023/03/04 11:11:37;;;;;;;13.90;3.35;;;9.90;99.90;;;;;;5111354;28;20719;-84
2023/03/04 11:14:13;;;;;;;12.93;3.47;;;10.10;99.90;;;;;;5089065;28;20195;-85
2023/03/04 11:16:40;;;;;;;20.45;3.47;;;10.00;99.90;;;;;;5111117;28;20212;-83
2023/03/04 11:19:14;;;;;;;14.50;3.70;;;9.80;99.90;;;;;;5112145;28;20221;-83
2023/03/04 11:21:42;;;;;;;14.18;3.95;;;9.60;99.90;;;;;;5110313;28;20222;-86
2023/03/04 11:24:14;;;;;;;19.58;5.82;;;9.30;99.90;;;;;;5106613;28;20205;-83
2023/03/04 11:26:55;;;;;;;20.73;5.18;;;9.10;99.90;;;;;;5105085;28;20221;-83
2023/03/04 11:29:46;;;;;;;16.50;3.88;;;9.30;99.90;;;;;;5092810;28;20222;-86
2023/03/04 11:32:21;;;;;;;18.38;5.40;;;9.40;99.90;;;;;;5107351;28;20206;-85
2023/03/04 11:35:05;;;;;;;21.70;5.50;;;9.60;99.90;;;;;;5114038;28;20201;-85
2023/03/04 11:37:39;;;;;;;13.60;3.65;;;9.80;99.90;;;;;;5100313;28;20222;-86
2023/03/04 11:40:12;;;;;;;17.83;5.90;;;10.00;99.90;;;;;;5093049;28;20254;-84
2023/03/04 11:42:45;;;;;;;14.40;3.60;;;10.10;99.90;;;;;;5103675;28;20210;-85
2023/03/04 11:48:46;;;;;;;15.70;4.03;;;9.80;99.90;;;;;;5108591;28;20290;-85
2023/03/04 11:51:24;;;;;;;10.35;3.50;;;9.50;99.90;;;;;;5114422;28;20194;-84
2023/03/04 11:54:12;;;;;;;14.93;2.88;;;9.30;99.90;;;;;;5096952;28;20199;-86
2023/03/04 11:56:44;;;;;;;12.82;3.53;;;9.20;99.90;;;;;;5096606;28;20289;-80
2023/03/04 11:59:46;;;;;;;14.13;3.38;;;9.20;99.90;;;;;;5103682;28;20218;-81
2023/03/04 12:02:19;;;;;;;17.85;4.40;;;9.30;99.90;;;;;;5091025;28;20246;-84
2023/03/04 12:05:14;;;;;;;19.40;4.57;;;9.40;99.90;;;;;;5097703;28;20202;-82
2023/03/04 12:08:15;;;;;;;12.32;4.00;;;9.30;99.90;;;;;;5094416;28;20221;-81
2023/03/04 12:10:48;;;;;;;16.58;4.50;;;9.30;99.90;;;;;;5102857;28;20205;-82
2023/03/04 12:13:33;;;;;;;18.45;5.15;;;9.50;99.90;;;;;;5100766;28;20289;-82
2023/03/04 12:16:15;;;;;;;16.10;3.97;;;9.50;99.90;;;;;;5099193;28;20193;-84
2023/03/04 12:18:59;;;;;;;16.90;5.05;;;9.60;99.90;;;;;;5099553;28;20217;-86
2023/03/04 12:21:50;;;;;;;13.15;4.22;;;9.50;99.90;;;;;;5099689;28;20779;-82
2023/03/04 12:24:38;;;;;;;10.48;3.75;;;9.30;99.90;;;;;;5098804;28;20202;-82
2023/03/04 12:27:18;;;;;;;25.00;4.20;;;9.10;99.90;;;;;;5102014;28;20247;-82
2023/03/04 12:29:55;;;;;;;17.58;4.82;;;9.00;99.90;;;;;;5107999;28;20198;-80
2023/03/04 12:32:32;;;;;;;14.98;3.92;;;8.70;99.90;;;;;;5101735;28;20206;-83
2023/03/04 12:35:13;;;;;;;10.40;3.65;;;8.50;99.90;;;;;;5103032;28;20202;-82
2023/03/04 12:38:10;;;;;;;12.10;3.55;;;8.50;99.90;;;;;;5101716;28;20222;-81
2023/03/04 12:40:45;;;;;;;18.20;3.45;;;8.70;99.90;;;;;;5105934;28;20327;-82
2023/03/04 12:43:30;;;;;;;24.33;4.32;;;8.50;99.90;;;;;;5101419;28;20285;-83
2023/03/04 12:46:10;;;;;;;22.45;5.75;;;8.70;99.90;;;;;;5106255;28;20206;-80
2023/03/04 12:48:43;;;;;;;13.05;4.55;;;8.80;99.90;;;;;;5108726;28;20256;-78
2023/03/04 12:51:27;;;;;;;16.30;3.90;;;8.90;99.90;;;;;;5106370;28;20167;-80
2023/03/04 12:54:05;;;;;;;25.25;5.80;;;8.70;99.90;;;;;;5107430;28;20194;-79
2023/03/04 12:56:40;;;;;;;17.88;4.55;;;8.80;99.90;;;;;;5109249;28;20191;-80
2023/03/04 12:59:13;;;;;;;16.10;4.32;;;8.90;99.90;;;;;;5112573;28;20312;-80
2023/03/04 13:01:44;;;;;;;16.70;4.65;;;8.90;99.90;;;;;;5107311;28;20242;-79
2023/03/04 13:04:22;;;;;;;17.67;5.20;;;9.00;99.90;;;;;;5098327;28;20199;-82
2023/03/04 13:06:54;;;;;;;13.23;3.85;;;8.90;99.90;;;;;;5092978;28;20198;-81
2023/03/04 13:09:28;;;;;;;19.25;4.47;;;8.70;99.90;;;;;;5101987;28;20187;-81
2023/03/04 13:12:03;;;;;;;21.45;4.75;;;8.70;99.90;;;;;;5100613;28;20233;-81
2023/03/04 13:14:32;;;;;;;15.93;4.40;;;8.60;99.90;;;;;;5101007;28;20187;-81
2023/03/04 13:17:01;;;;;;;22.50;4.40;;;8.60;99.90;;;;;;5112641;28;20176;-79
2023/03/04 13:19:51;;;;;;;18.20;4.50;;;8.50;99.90;;;;;;5108090;28;20179;-79
2023/03/04 13:22:43;;;;;;;21.88;4.25;;;8.60;99.90;;;;;;5118566;28;20224;-79
2023/03/04 13:25:41;;;;;;;15.23;4.35;;;8.50;99.90;;;;;;5098113;28;20167;-78
2023/03/04 13:28:20;;;;;;;16.50;4.35;;;8.60;99.90;;;;;;5107640;28;20295;-81
2023/03/04 13:31:07;;;;;;;9.77;4.25;;;8.60;99.90;;;;;;5103595;28;20244;-79
2023/03/04 13:33:56;;;;;;;15.43;4.70;;;8.60;99.90;;;;;;5104155;28;20190;-80
2023/03/04 13:36:50;;;;;;;19.27;3.40;;;8.40;99.90;;;;;;5091141;28;20207;-81
2023/03/04 13:39:36;;;;;;;14.52;3.55;;;8.30;99.90;;;;;;5105404;28;20230;-81
2023/03/04 13:42:24;;;;;;;12.38;5.13;;;8.50;99.90;;;;;;5096079;28;20222;-81